sensor_id;sensor_type;location;lat;lon;timestamp;temperature;humidity
31809;DHT22;18379;48.208;-1.518;2023-03-22T00:04:11;11.20;99.90
31809;DHT22;18379;48.208;-1.518;2023-03-22T00:09:12;11.20;99.90
31809;DHT22;18379;48.208;-1.518;2023-03-22T00:14:12;11.20;99.90
31809;DHT22;18379;48.208;-1.518;2023-03-22T00:19:16;11.30;99.90
31809;DHT22;18379;48.208;-1.518;2023-03-22T00:24:17;11.30;99.90
31809;DHT22;18379;48.208;-1.518;2023-03-22T00:29:17;11.20;99.90
31809;DHT22;18379;48.208;-1.518;2023-03-22T00:34:19;11.20;99.90
31809;DHT22;18379;48.208;-1.518;2023-03-22T00:39:20;11.30;99.90
31809;DHT22;18379;48.208;-1.518;2023-03-22T00:44:21;11.30;99.90
31809;DHT22;18379;48.208;-1.518;2023-03-22T00:49:22;11.40;99.90
31809;DHT22;18379;48.208;-1.518;2023-03-22T00:54:23;11.40;99.90
31809;DHT22;18379;48.208;-1.518;2023-03-22T00:59:23;11.40;99.90
31809;DHT22;18379;48.208;-1.518;2023-03-22T01:04:24;11.40;99.90
31809;DHT22;18379;48.208;-1.518;2023-03-22T01:09:29;11.40;99.90
31809;DHT22;18379;48.208;-1.518;2023-03-22T01:14:33;11.50;99.90
31809;DHT22;18379;48.208;-1.518;2023-03-22T01:19:35;11.50;99.90
31809;DHT22;18379;48.208;-1.518;2023-03-22T01:24:36;11.50;99.90
31809;DHT22;18379;48.208;-1.518;2023-03-22T01:29:37;11.50;99.90
31809;DHT22;18379;48.208;-1.518;2023-03-22T01:34:37;11.50;99.90
31809;DHT22;18379;48.208;-1.518;2023-03-22T01:39:38;11.60;99.90
31809;DHT22;18379;48.208;-1.518;2023-03-22T01:44:41;11.60;99.90
31809;DHT22;18379;48.208;-1.518;2023-03-22T01:49:43;11.60;99.90
31809;DHT22;18379;48.208;-1.518;2023-03-22T01:54:47;11.50;99.90
31809;DHT22;18379;48.208;-1.518;2023-03-22T01:59:50;11.50;99.90
31809;DHT22;18379;48.208;-1.518;2023-03-22T02:04:50;11.50;99.90
31809;DHT22;18379;48.208;-1.518;2023-03-22T02:09:58;11.50;99.90
31809;DHT22;18379;48.208;-1.518;2023-03-22T02:15:12;11.50;99.90
31809;DHT22;18379;48.208;-1.518;2023-03-22T02:42:38;11.50;99.90
31809;DHT22;18379;48.208;-1.518;2023-03-22T02:47:29;11.50;99.90
31809;DHT22;18379;48.208;-1.518;2023-03-22T02:52:53;11.50;99.90
31809;DHT22;18379;48.208;-1.518;2023-03-22T02:58:03;11.50;99.90
31809;DHT22;18379;48.208;-1.518;2023-03-22T03:03:10;11.40;99.90
31809;DHT22;18379;48.208;-1.518;2023-03-22T03:08:12;11.40;99.90
31809;DHT22;18379;48.208;-1.518;2023-03-22T03:13:16;11.40;99.90
31809;DHT22;18379;48.208;-1.518;2023-03-22T03:18:41;11.40;99.90
31809;DHT22;18379;48.208;-1.518;2023-03-22T03:29:12;11.40;99.90
31809;DHT22;18379;48.208;-1.518;2023-03-22T03:39:20;11.50;99.90
31809;DHT22;18379;48.208;-1.518;2023-03-22T03:44:23;11.50;99.90
31809;DHT22;18379;48.208;-1.518;2023-03-22T03:49:24;11.50;99.90
31809;DHT22;18379;48.208;-1.518;2023-03-22T03:54:26;11.50;99.90
31809;DHT22;18379;48.208;-1.518;2023-03-22T03:59:27;11.50;99.90
31809;DHT22;18379;48.208;-1.518;2023-03-22T04:04:28;11.50;99.90
31809;DHT22;18379;48.208;-1.518;2023-03-22T04:09:32;11.60;99.90
31809;DHT22;18379;48.208;-1.518;2023-03-22T04:14:33;11.60;99.90
31809;DHT22;18379;48.208;-1.518;2023-03-22T04:19:34;11.60;99.90
31809;DHT22;18379;48.208;-1.518;2023-03-22T04:24:35;11.60;99.90
31809;DHT22;18379;48.208;-1.518;2023-03-22T04:29:37;11.60;99.90
31809;DHT22;18379;48.208;-1.518;2023-03-22T04:34:38;11.60;99.90
31809;DHT22;18379;48.208;-1.518;2023-03-22T04:39:38;11.60;99.90
31809;DHT22;18379;48.208;-1.518;2023-03-22T04:44:40;11.70;99.90
31809;DHT22;18379;48.208;-1.518;2023-03-22T04:49:40;11.70;99.90
31809;DHT22;18379;48.208;-1.518;2023-03-22T04:54:41;11.80;99.90
31809;DHT22;18379;48.208;-1.518;2023-03-22T04:59:42;11.70;99.90
31809;DHT22;18379;48.208;-1.518;2023-03-22T05:04:43;11.70;99.90
31809;DHT22;18379;48.208;-1.518;2023-03-22T05:09:44;11.70;99.90
31809;DHT22;18379;48.208;-1.518;2023-03-22T05:14:44;11.70;99.90
31809;DHT22;18379;48.208;-1.518;2023-03-22T05:19:45;11.70;99.90
31809;DHT22;18379;48.208;-1.518;2023-03-22T05:24:47;11.70;99.90
31809;DHT22;18379;48.208;-1.518;2023-03-22T05:29:48;11.70;99.90
31809;DHT22;18379;48.208;-1.518;2023-03-22T05:34:49;11.70;99.90
31809;DHT22;18379;48.208;-1.518;2023-03-22T05:39:50;11.70;99.90
31809;DHT22;18379;48.208;-1.518;2023-03-22T05:44:50;11.70;99.90
31809;DHT22;18379;48.208;-1.518;2023-03-22T05:49:51;11.70;99.90
31809;DHT22;18379;48.208;-1.518;2023-03-22T05:54:52;11.70;99.90
31809;DHT22;18379;48.208;-1.518;2023-03-22T05:59:52;11.80;99.90
31809;DHT22;18379;48.208;-1.518;2023-03-22T06:04:53;11.80;99.90
31809;DHT22;18379;48.208;-1.518;2023-03-22T06:09:54;11.80;99.90
31809;DHT22;18379;48.208;-1.518;2023-03-22T06:14:55;11.80;99.90
31809;DHT22;18379;48.208;-1.518;2023-03-22T06:19:56;11.80;99.90
31809;DHT22;18379;48.208;-1.518;2023-03-22T06:24:57;11.80;99.90
31809;DHT22;18379;48.208;-1.518;2023-03-22T06:29:57;11.80;99.90
31809;DHT22;18379;48.208;-1.518;2023-03-22T06:34:58;11.70;99.90
31809;DHT22;18379;48.208;-1.518;2023-03-22T06:39:59;11.80;99.90
31809;DHT22;18379;48.208;-1.518;2023-03-22T06:45:00;11.70;99.90
31809;DHT22;18379;48.208;-1.518;2023-03-22T06:50:00;11.70;99.90
31809;DHT22;18379;48.208;-1.518;2023-03-22T06:55:02;11.70;99.90
31809;DHT22;18379;48.208;-1.518;2023-03-22T07:00:03;11.70;99.90
31809;DHT22;18379;48.208;-1.518;2023-03-22T07:05:06;11.60;99.90
31809;DHT22;18379;48.208;-1.518;2023-03-22T07:10:08;11.60;99.90
31809;DHT22;18379;48.208;-1.518;2023-03-22T07:15:09;11.70;99.90
31809;DHT22;18379;48.208;-1.518;2023-03-22T07:20:10;11.60;99.90
31809;DHT22;18379;48.208;-1.518;2023-03-22T07:25:11;11.70;99.90
31809;DHT22;18379;48.208;-1.518;2023-03-22T07:30:12;11.70;99.90
31809;DHT22;18379;48.208;-1.518;2023-03-22T07:35:13;11.70;99.90
31809;DHT22;18379;48.208;-1.518;2023-03-22T07:40:16;11.80;99.90
31809;DHT22;18379;48.208;-1.518;2023-03-22T07:45:18;11.80;99.90
31809;DHT22;18379;48.208;-1.518;2023-03-22T07:50:20;11.90;99.90
31809;DHT22;18379;48.208;-1.518;2023-03-22T07:55:42;11.90;99.90
31809;DHT22;18379;48.208;-1.518;2023-03-22T08:00:47;11.90;99.90
31809;DHT22;18379;48.208;-1.518;2023-03-22T08:05:49;11.90;99.90
31809;DHT22;18379;48.208;-1.518;2023-03-22T08:10:51;11.90;99.90
31809;DHT22;18379;48.208;-1.518;2023-03-22T08:15:52;11.90;99.90
31809;DHT22;18379;48.208;-1.518;2023-03-22T08:20:57;12.00;99.90
31809;DHT22;18379;48.208;-1.518;2023-03-22T08:25:58;12.00;99.90
31809;DHT22;18379;48.208;-1.518;2023-03-22T08:30:59;12.00;99.90
31809;DHT22;18379;48.208;-1.518;2023-03-22T08:36:07;12.10;99.90
31809;DHT22;18379;48.208;-1.518;2023-03-22T08:41:08;12.20;99.90
31809;DHT22;18379;48.208;-1.518;2023-03-22T08:46:10;12.30;99.90
31809;DHT22;18379;48.208;-1.518;2023-03-22T08:51:10;12.40;99.90
31809;DHT22;18379;48.208;-1.518;2023-03-22T08:56:12;12.30;99.90
31809;DHT22;18379;48.208;-1.518;2023-03-22T09:01:16;12.40;99.90
31809;DHT22;18379;48.208;-1.518;2023-03-22T09:06:17;12.40;99.90
31809;DHT22;18379;48.208;-1.518;2023-03-22T09:11:18;12.50;99.90
31809;DHT22;18379;48.208;-1.518;2023-03-22T09:16:20;12.50;99.90
31809;DHT22;18379;48.208;-1.518;2023-03-22T09:21:21;12.50;99.90
31809;DHT22;18379;48.208;-1.518;2023-03-22T09:26:22;12.60;99.90
31809;DHT22;18379;48.208;-1.518;2023-03-22T09:31:23;12.50;99.90
31809;DHT22;18379;48.208;-1.518;2023-03-22T09:36:24;12.60;99.90
31809;DHT22;18379;48.208;-1.518;2023-03-22T09:41:47;12.60;99.90
31809;DHT22;18379;48.208;-1.518;2023-03-22T09:46:52;12.60;99.90
31809;DHT22;18379;48.208;-1.518;2023-03-22T09:51:54;12.50;99.90
31809;DHT22;18379;48.208;-1.518;2023-03-22T10:13:27;12.50;99.90
31809;DHT22;18379;48.208;-1.518;2023-03-22T10:18:39;12.50;99.90
31809;DHT22;18379;48.208;-1.518;2023-03-22T10:23:50;12.50;99.90
31809;DHT22;18379;48.208;-1.518;2023-03-22T10:29:08;12.50;99.90
31809;DHT22;18379;48.208;-1.518;2023-03-22T10:34:20;12.40;99.90
31809;DHT22;18379;48.208;-1.518;2023-03-22T10:44:30;12.40;99.90
31809;DHT22;18379;48.208;-1.518;2023-03-22T10:49:49;12.40;99.90
31809;DHT22;18379;48.208;-1.518;2023-03-22T10:54:54;12.30;99.90
31809;DHT22;18379;48.208;-1.518;2023-03-22T10:59:57;12.40;99.90
31809;DHT22;18379;48.208;-1.518;2023-03-22T11:05:00;12.50;99.90
31809;DHT22;18379;48.208;-1.518;2023-03-22T11:15:22;12.50;99.90
31809;DHT22;18379;48.208;-1.518;2023-03-22T11:20:25;12.50;99.90
31809;DHT22;18379;48.208;-1.518;2023-03-22T11:25:30;12.50;99.90
31809;DHT22;18379;48.208;-1.518;2023-03-22T11:30:33;12.40;99.90
31809;DHT22;18379;48.208;-1.518;2023-03-22T11:35:38;12.30;99.90
31809;DHT22;18379;48.208;-1.518;2023-03-22T11:40:48;12.40;99.90
31809;DHT22;18379;48.208;-1.518;2023-03-22T11:45:56;12.40;99.90
31809;DHT22;18379;48.208;-1.518;2023-03-22T11:51:09;12.40;99.90
31809;DHT22;18379;48.208;-1.518;2023-03-22T11:56:15;12.40;99.90
31809;DHT22;18379;48.208;-1.518;2023-03-22T12:01:33;12.40;99.90
31809;DHT22;18379;48.208;-1.518;2023-03-22T12:06:39;12.40;99.90
31809;DHT22;18379;48.208;-1.518;2023-03-22T12:11:45;12.40;99.90
31809;DHT22;18379;48.208;-1.518;2023-03-22T12:16:50;12.40;99.90
31809;DHT22;18379;48.208;-1.518;2023-03-22T12:21:54;12.40;99.90
31809;DHT22;18379;48.208;-1.518;2023-03-22T12:32:25;12.50;99.90
31809;DHT22;18379;48.208;-1.518;2023-03-22T12:37:31;12.40;99.90
31809;DHT22;18379;48.208;-1.518;2023-03-22T12:43:15;12.50;99.90
31809;DHT22;18379;48.208;-1.518;2023-03-22T12:48:18;12.40;99.90
31809;DHT22;18379;48.208;-1.518;2023-03-22T12:53:25;12.40;99.90
31809;DHT22;18379;48.208;-1.518;2023-03-22T12:58:28;12.50;99.90
31809;DHT22;18379;48.208;-1.518;2023-03-22T13:03:38;12.50;99.90
31809;DHT22;18379;48.208;-1.518;2023-03-22T13:09:10;12.50;99.90
31809;DHT22;18379;48.208;-1.518;2023-03-22T13:25:00;12.60;99.90
31809;DHT22;18379;48.208;-1.518;2023-03-22T13:35:27;12.50;99.90
31809;DHT22;18379;48.208;-1.518;2023-03-22T13:40:46;12.50;99.90
31809;DHT22;18379;48.208;-1.518;2023-03-22T13:51:34;12.50;99.90
31809;DHT22;18379;48.208;-1.518;2023-03-22T14:06:57;12.50;99.90
31809;DHT22;18379;48.208;-1.518;2023-03-22T14:12:02;12.50;99.90
31809;DHT22;18379;48.208;-1.518;2023-03-22T14:22:27;12.60;99.90
31809;DHT22;18379;48.208;-1.518;2023-03-22T14:27:32;12.60;99.90
31809;DHT22;18379;48.208;-1.518;2023-03-22T14:32:33;12.50;99.90
31809;DHT22;18379;48.208;-1.518;2023-03-22T14:37:38;12.50;99.90
31809;DHT22;18379;48.208;-1.518;2023-03-22T14:42:39;12.40;99.90
31809;DHT22;18379;48.208;-1.518;2023-03-22T14:47:43;12.50;99.90
31809;DHT22;18379;48.208;-1.518;2023-03-22T14:52:47;12.40;99.90
31809;DHT22;18379;48.208;-1.518;2023-03-22T14:57:55;12.50;99.90
31809;DHT22;18379;48.208;-1.518;2023-03-22T15:02:58;12.50;99.90
31809;DHT22;18379;48.208;-1.518;2023-03-22T15:13:10;12.50;99.90
31809;DHT22;18379;48.208;-1.518;2023-03-22T15:18:14;12.40;99.90
31809;DHT22;18379;48.208;-1.518;2023-03-22T15:23:18;12.40;99.90
31809;DHT22;18379;48.208;-1.518;2023-03-22T15:28:20;12.40;99.90
31809;DHT22;18379;48.208;-1.518;2023-03-22T15:33:31;12.40;99.90
31809;DHT22;18379;48.208;-1.518;2023-03-22T15:38:41;12.40;99.90
31809;DHT22;18379;48.208;-1.518;2023-03-22T15:43:42;12.40;99.90
31809;DHT22;18379;48.208;-1.518;2023-03-22T15:53:46;12.50;99.90
31809;DHT22;18379;48.208;-1.518;2023-03-22T15:58:53;12.50;99.90
31809;DHT22;18379;48.208;-1.518;2023-03-22T16:03:57;12.50;99.90
31809;DHT22;18379;48.208;-1.518;2023-03-22T16:08:58;12.50;99.90
31809;DHT22;18379;48.208;-1.518;2023-03-22T16:14:00;12.50;99.90
31809;DHT22;18379;48.208;-1.518;2023-03-22T16:19:01;12.50;99.90
31809;DHT22;18379;48.208;-1.518;2023-03-22T16:24:03;12.60;99.90
31809;DHT22;18379;48.208;-1.518;2023-03-22T16:29:04;12.60;99.90
31809;DHT22;18379;48.208;-1.518;2023-03-22T16:34:05;12.50;99.90
31809;DHT22;18379;48.208;-1.518;2023-03-22T16:39:06;12.60;99.90
31809;DHT22;18379;48.208;-1.518;2023-03-22T16:44:16;12.60;99.90
31809;DHT22;18379;48.208;-1.518;2023-03-22T16:49:17;12.50;99.90
31809;DHT22;18379;48.208;-1.518;2023-03-22T16:54:18;12.50;99.90
31809;DHT22;18379;48.208;-1.518;2023-03-22T16:59:18;12.50;99.90
31809;DHT22;18379;48.208;-1.518;2023-03-22T17:04:19;12.50;99.90
31809;DHT22;18379;48.208;-1.518;2023-03-22T17:09:20;12.60;99.90
31809;DHT22;18379;48.208;-1.518;2023-03-22T17:14:23;12.60;99.90
31809;DHT22;18379;48.208;-1.518;2023-03-22T17:19:25;12.50;99.90
31809;DHT22;18379;48.208;-1.518;2023-03-22T17:24:26;12.50;99.90
31809;DHT22;18379;48.208;-1.518;2023-03-22T17:29:27;12.50;99.90
31809;DHT22;18379;48.208;-1.518;2023-03-22T17:34:27;12.50;99.90
31809;DHT22;18379;48.208;-1.518;2023-03-22T17:39:29;12.50;99.90
31809;DHT22;18379;48.208;-1.518;2023-03-22T17:44:35;12.40;99.90
31809;DHT22;18379;48.208;-1.518;2023-03-22T17:49:37;12.30;99.90
31809;DHT22;18379;48.208;-1.518;2023-03-22T17:54:39;12.40;99.90
31809;DHT22;18379;48.208;-1.518;2023-03-22T17:59:40;12.40;99.90
31809;DHT22;18379;48.208;-1.518;2023-03-22T18:04:40;12.30;99.90
31809;DHT22;18379;48.208;-1.518;2023-03-22T18:09:41;12.40;99.90
31809;DHT22;18379;48.208;-1.518;2023-03-22T18:14:43;12.40;99.90
31809;DHT22;18379;48.208;-1.518;2023-03-22T18:19:44;12.40;99.90
31809;DHT22;18379;48.208;-1.518;2023-03-22T18:24:45;12.40;99.90
31809;DHT22;18379;48.208;-1.518;2023-03-22T18:29:47;12.40;99.90
31809;DHT22;18379;48.208;-1.518;2023-03-22T18:34:47;12.30;99.90
31809;DHT22;18379;48.208;-1.518;2023-03-22T18:39:48;12.30;99.90
31809;DHT22;18379;48.208;-1.518;2023-03-22T18:44:49;12.30;99.90
31809;DHT22;18379;48.208;-1.518;2023-03-22T18:49:50;12.30;99.90
31809;DHT22;18379;48.208;-1.518;2023-03-22T18:54:51;12.30;99.90
31809;DHT22;18379;48.208;-1.518;2023-03-22T18:59:52;12.30;99.90
31809;DHT22;18379;48.208;-1.518;2023-03-22T19:04:53;12.20;99.90
31809;DHT22;18379;48.208;-1.518;2023-03-22T19:09:54;12.20;99.90
31809;DHT22;18379;48.208;-1.518;2023-03-22T19:14:56;12.20;99.90
31809;DHT22;18379;48.208;-1.518;2023-03-22T19:19:58;12.20;99.90
31809;DHT22;18379;48.208;-1.518;2023-03-22T19:24:59;12.20;99.90
31809;DHT22;18379;48.208;-1.518;2023-03-22T19:30:00;12.20;99.90
31809;DHT22;18379;48.208;-1.518;2023-03-22T19:35:01;12.20;99.90
31809;DHT22;18379;48.208;-1.518;2023-03-22T19:40:02;12.20;99.90
31809;DHT22;18379;48.208;-1.518;2023-03-22T19:45:07;12.20;99.90
31809;DHT22;18379;48.208;-1.518;2023-03-22T19:50:09;12.20;99.90
31809;DHT22;18379;48.208;-1.518;2023-03-22T19:55:10;12.20;99.90
31809;DHT22;18379;48.208;-1.518;2023-03-22T20:00:11;12.20;99.90
31809;DHT22;18379;48.208;-1.518;2023-03-22T20:05:16;12.20;99.90
31809;DHT22;18379;48.208;-1.518;2023-03-22T20:10:18;12.20;99.90
31809;DHT22;18379;48.208;-1.518;2023-03-22T20:15:19;12.20;99.90
31809;DHT22;18379;48.208;-1.518;2023-03-22T20:20:19;12.20;99.90
31809;DHT22;18379;48.208;-1.518;2023-03-22T20:25:21;12.30;99.90
31809;DHT22;18379;48.208;-1.518;2023-03-22T20:30:22;12.30;99.90
31809;DHT22;18379;48.208;-1.518;2023-03-22T20:35:23;12.40;99.90
31809;DHT22;18379;48.208;-1.518;2023-03-22T20:40:24;12.30;99.90
31809;DHT22;18379;48.208;-1.518;2023-03-22T20:45:26;12.40;99.90
31809;DHT22;18379;48.208;-1.518;2023-03-22T20:50:27;12.40;99.90
31809;DHT22;18379;48.208;-1.518;2023-03-22T20:55:28;12.40;99.90
31809;DHT22;18379;48.208;-1.518;2023-03-22T21:00:29;12.40;99.90
31809;DHT22;18379;48.208;-1.518;2023-03-22T21:05:30;12.40;99.90
31809;DHT22;18379;48.208;-1.518;2023-03-22T21:10:30;12.40;99.90
31809;DHT22;18379;48.208;-1.518;2023-03-22T21:15:32;12.40;99.90
31809;DHT22;18379;48.208;-1.518;2023-03-22T21:20:34;12.40;99.90
31809;DHT22;18379;48.208;-1.518;2023-03-22T21:25:34;12.30;99.90
31809;DHT22;18379;48.208;-1.518;2023-03-22T21:30:38;12.40;99.90
31809;DHT22;18379;48.208;-1.518;2023-03-22T21:35:39;12.40;99.90
31809;DHT22;18379;48.208;-1.518;2023-03-22T21:40:41;12.30;99.90
31809;DHT22;18379;48.208;-1.518;2023-03-22T21:45:49;12.30;99.90
31809;DHT22;18379;48.208;-1.518;2023-03-22T21:50:55;12.30;99.90
31809;DHT22;18379;48.208;-1.518;2023-03-22T21:55:55;12.30;99.90
31809;DHT22;18379;48.208;-1.518;2023-03-22T22:00:58;12.30;99.90
31809;DHT22;18379;48.208;-1.518;2023-03-22T22:05:59;12.30;99.90
31809;DHT22;18379;48.208;-1.518;2023-03-22T22:11:02;12.30;99.90
31809;DHT22;18379;48.208;-1.518;2023-03-22T22:16:06;12.30;99.90
31809;DHT22;18379;48.208;-1.518;2023-03-22T22:21:10;12.30;99.90
31809;DHT22;18379;48.208;-1.518;2023-03-22T22:26:13;12.30;99.90
31809;DHT22;18379;48.208;-1.518;2023-03-22T22:31:16;12.30;99.90
31809;DHT22;18379;48.208;-1.518;2023-03-22T22:36:27;12.20;99.90
31809;DHT22;18379;48.208;-1.518;2023-03-22T22:41:29;12.20;99.90
31809;DHT22;18379;48.208;-1.518;2023-03-22T22:46:30;12.20;99.90
31809;DHT22;18379;48.208;-1.518;2023-03-22T22:51:31;12.20;99.90
31809;DHT22;18379;48.208;-1.518;2023-03-22T22:56:32;12.20;99.90
31809;DHT22;18379;48.208;-1.518;2023-03-22T23:01:36;12.20;99.90
31809;DHT22;18379;48.208;-1.518;2023-03-22T23:06:37;12.20;99.90
31809;DHT22;18379;48.208;-1.518;2023-03-22T23:11:37;12.20;99.90
31809;DHT22;18379;48.208;-1.518;2023-03-22T23:16:39;12.30;99.90
31809;DHT22;18379;48.208;-1.518;2023-03-22T23:21:40;12.30;99.90
31809;DHT22;18379;48.208;-1.518;2023-03-22T23:26:46;12.20;99.90
31809;DHT22;18379;48.208;-1.518;2023-03-22T23:31:47;12.20;99.90
31809;DHT22;18379;48.208;-1.518;2023-03-22T23:36:48;12.20;99.90
31809;DHT22;18379;48.208;-1.518;2023-03-22T23:41:50;12.20;99.90
31809;DHT22;18379;48.208;-1.518;2023-03-22T23:46:51;12.20;99.90
31809;DHT22;18379;48.208;-1.518;2023-03-22T23:51:51;12.20;99.90
31809;DHT22;18379;48.208;-1.518;2023-03-22T23:56:52;12.20;99.90
